createdAt,value
2019-04-06T00:01:14.416Z,4.70
2019-04-06T00:03:41.447Z,4.33
2019-04-06T00:06:08.532Z,4.80
2019-04-06T00:08:35.550Z,4.60
2019-04-06T00:11:02.600Z,4.40
2019-04-06T00:13:29.639Z,4.27
2019-04-06T00:15:56.683Z,4.50
2019-04-06T00:18:23.708Z,4.80
2019-04-06T00:20:50.767Z,4.50
2019-04-06T00:23:17.778Z,4.00
2019-04-06T00:25:45.099Z,4.33
2019-04-06T00:28:12.312Z,4.70
2019-04-06T00:31:04.627Z,5.33
2019-04-06T00:33:31.684Z,4.30
2019-04-06T00:35:58.691Z,4.73
2019-04-06T00:38:25.754Z,4.50
2019-04-06T00:40:52.788Z,4.60
2019-04-06T00:43:19.858Z,4.27
2019-04-06T00:45:46.921Z,5.20
2019-04-06T00:48:13.983Z,5.00
2019-04-06T00:50:41.024Z,4.33
2019-04-06T00:53:08.131Z,4.40
2019-04-06T00:55:35.144Z,4.63
2019-04-06T00:58:02.175Z,4.03
2019-04-06T01:00:29.232Z,4.50
2019-04-06T01:02:56.280Z,5.10
2019-04-06T01:05:23.322Z,4.00
2019-04-06T01:07:50.474Z,4.00
2019-04-06T01:10:17.508Z,4.73
2019-04-06T01:12:44.538Z,4.40
2019-04-06T01:15:11.593Z,5.03
2019-04-06T01:17:38.639Z,4.20
2019-04-06T01:20:05.644Z,4.47
2019-04-06T01:22:32.657Z,4.70
2019-04-06T01:24:59.719Z,4.23
2019-04-06T01:27:26.750Z,4.17
2019-04-06T01:29:53.860Z,4.27
2019-04-06T01:32:21.048Z,4.07
2019-04-06T01:34:48.053Z,3.87
2019-04-06T01:37:15.122Z,4.60
2019-04-06T01:39:42.176Z,4.50
2019-04-06T01:42:09.242Z,4.50
2019-04-06T01:44:36.376Z,4.00
2019-04-06T01:47:03.542Z,5.07
2019-04-06T01:49:30.566Z,4.50
2019-04-06T01:51:57.651Z,4.63
2019-04-06T01:54:24.749Z,4.20
2019-04-06T01:56:51.799Z,4.30
2019-04-06T01:59:18.851Z,4.20
2019-04-06T02:01:53.882Z,3.80
2019-04-06T02:04:20.941Z,4.70
2019-04-06T02:06:48.000Z,4.60
2019-04-06T02:09:15.069Z,4.40
2019-04-06T02:11:42.096Z,4.80
2019-04-06T02:14:09.118Z,4.00
2019-04-06T02:16:36.166Z,4.43
2019-04-06T02:19:03.269Z,4.80
2019-04-06T02:21:30.328Z,4.17
2019-04-06T02:23:57.356Z,4.23
2019-04-06T02:26:30.248Z,4.00
2019-04-06T02:28:53.343Z,4.20
2019-04-06T02:31:45.558Z,3.90
2019-04-06T02:34:30.480Z,4.00
2019-04-06T02:37:19.709Z,3.80
2019-04-06T02:40:09.034Z,4.40
2019-04-06T02:42:45.899Z,4.23
2019-04-06T02:45:12.920Z,4.23
2019-04-06T02:47:39.987Z,4.53
2019-04-06T02:50:07.013Z,3.97
2019-04-06T02:52:34.191Z,4.50
2019-04-06T02:55:01.229Z,4.33
2019-04-06T02:57:28.240Z,4.10
2019-04-06T02:59:55.300Z,4.00
2019-04-06T03:02:22.317Z,4.37
2019-04-06T03:04:49.400Z,3.73
2019-04-06T03:07:16.586Z,4.17
2019-04-06T03:09:43.834Z,4.00
2019-04-06T03:12:10.922Z,3.63
2019-04-06T03:14:37.927Z,4.60
2019-04-06T03:17:05.056Z,3.93
2019-04-06T03:19:32.105Z,4.10
2019-04-06T03:21:59.158Z,3.77
2019-04-06T03:24:26.368Z,3.93
2019-04-06T03:27:00.734Z,4.37
2019-04-06T03:29:22.267Z,4.00
2019-04-06T03:31:49.359Z,3.93
2019-04-06T03:34:20.730Z,4.27
2019-04-06T03:36:45.261Z,4.00
2019-04-06T03:39:12.528Z,3.90
2019-04-06T03:41:39.632Z,3.97
2019-04-06T03:44:06.699Z,3.90
2019-04-06T03:46:33.765Z,4.20
2019-04-06T03:49:00.813Z,3.90
2019-04-06T03:51:27.851Z,3.70
2019-04-06T03:53:54.997Z,3.97
2019-04-06T03:56:22.025Z,4.40
2019-04-06T03:58:51.905Z,4.07
2019-04-06T04:01:17.899Z,3.63
2019-04-06T04:03:44.921Z,3.97
2019-04-06T04:06:11.977Z,4.10
2019-04-06T04:08:39.020Z,4.13
2019-04-06T04:11:06.346Z,3.73
2019-04-06T04:13:33.544Z,3.77
2019-04-06T04:16:00.557Z,4.10
2019-04-06T04:18:27.613Z,3.47
2019-04-06T04:20:54.635Z,3.70
2019-04-06T04:23:21.685Z,3.80
2019-04-06T04:25:48.735Z,3.80
2019-04-06T04:28:15.872Z,4.20
2019-04-06T04:30:42.884Z,4.20
2019-04-06T04:33:09.932Z,4.20
2019-04-06T04:35:37.039Z,3.87
2019-04-06T04:38:04.158Z,4.07
2019-04-06T04:40:31.202Z,4.50
2019-04-06T04:42:58.248Z,3.53
2019-04-06T04:45:25.268Z,3.20
2019-04-06T04:47:52.322Z,3.50
2019-04-06T04:50:19.360Z,3.80
2019-04-06T04:52:46.536Z,3.70
2019-04-06T04:55:13.639Z,3.90
2019-04-06T04:57:42.004Z,4.53
2019-04-06T05:00:09.961Z,3.80
2019-04-06T05:02:37.028Z,4.33
2019-04-06T05:05:04.232Z,3.73
2019-04-06T05:07:31.488Z,4.00
2019-04-06T05:09:58.565Z,3.93
2019-04-06T05:12:25.617Z,3.40
2019-04-06T05:14:55.381Z,3.63
2019-04-06T05:17:22.408Z,4.10
2019-04-06T05:19:49.433Z,4.07
2019-04-06T05:22:16.478Z,3.83
2019-04-06T05:24:43.522Z,4.20
2019-04-06T05:27:10.579Z,3.30
2019-04-06T05:29:37.757Z,3.90
2019-04-06T05:32:04.989Z,4.00
2019-04-06T05:34:32.086Z,3.70
2019-04-06T05:36:59.302Z,3.60
2019-04-06T05:39:26.512Z,2.90
2019-04-06T05:41:53.590Z,3.50
2019-04-06T05:44:20.660Z,4.13
2019-04-06T05:46:47.719Z,4.23
2019-04-06T05:49:14.753Z,3.70
2019-04-06T05:51:41.780Z,3.83
2019-04-06T05:54:08.833Z,3.40
2019-04-06T05:56:36.178Z,3.40
2019-04-06T05:59:03.414Z,3.50
2019-04-06T06:01:30.443Z,3.50
2019-04-06T06:03:57.529Z,3.33
2019-04-06T06:06:24.643Z,3.93
2019-04-06T06:08:51.643Z,3.40
2019-04-06T06:11:18.686Z,3.70
2019-04-06T06:13:45.697Z,3.40
2019-04-06T06:16:12.754Z,3.40
2019-04-06T06:18:39.902Z,3.30
2019-04-06T06:21:06.893Z,4.40
2019-04-06T06:23:33.931Z,3.40
2019-04-06T06:26:01.187Z,3.50
2019-04-06T06:28:28.527Z,3.97
2019-04-06T06:30:55.569Z,3.67
2019-04-06T06:33:22.562Z,3.23
2019-04-06T06:35:49.716Z,3.90
2019-04-06T06:38:16.798Z,3.43
2019-04-06T06:40:43.825Z,3.10
2019-04-06T06:43:11.855Z,3.30
2019-04-06T06:45:39.082Z,3.13
2019-04-06T06:48:06.257Z,3.83
2019-04-06T06:50:34.520Z,3.67
2019-04-06T06:53:01.912Z,3.43
2019-04-06T06:55:28.967Z,2.93
2019-04-06T06:57:56.680Z,3.57
2019-04-06T07:00:23.766Z,3.30
2019-04-06T07:02:51.029Z,3.40
2019-04-06T07:05:18.121Z,2.97
2019-04-06T07:07:45.307Z,3.40
2019-04-06T07:10:12.390Z,3.83
2019-04-06T07:12:39.576Z,3.20
2019-04-06T07:15:06.602Z,3.30
2019-04-06T07:17:33.612Z,3.40
2019-04-06T07:20:00.672Z,3.40
2019-04-06T07:22:27.870Z,3.00
2019-04-06T07:24:55.057Z,3.77
2019-04-06T07:27:22.079Z,4.07
2019-04-06T07:29:49.151Z,3.13
2019-04-06T07:32:16.179Z,2.80
2019-04-06T07:34:43.212Z,4.03
2019-04-06T07:37:10.278Z,3.57
2019-04-06T07:39:37.306Z,3.77
2019-04-06T07:42:04.378Z,2.57
2019-04-06T07:44:31.374Z,3.40
2019-04-06T07:46:58.530Z,3.30
2019-04-06T07:49:25.612Z,3.17
2019-04-06T07:51:52.686Z,3.00
2019-04-06T07:54:19.732Z,3.53
2019-04-06T07:56:46.760Z,3.47
2019-04-06T07:59:13.803Z,3.00
2019-04-06T08:01:40.957Z,3.20
2019-04-06T08:04:08.013Z,2.87
2019-04-06T08:06:35.049Z,3.10
2019-04-06T08:09:02.289Z,3.57
2019-04-06T08:11:29.385Z,3.27
2019-04-06T08:13:56.424Z,3.10
2019-04-06T08:16:23.467Z,4.13
2019-04-06T08:18:50.507Z,3.07
2019-04-06T08:21:19.653Z,2.70
2019-04-06T08:23:46.353Z,3.30
2019-04-06T08:26:13.382Z,3.87
2019-04-06T08:28:40.436Z,3.40
2019-04-06T08:31:07.449Z,3.67
2019-04-06T08:33:34.473Z,3.60
2019-04-06T08:36:01.523Z,3.60
2019-04-06T08:38:28.545Z,3.60
2019-04-06T08:40:55.729Z,3.00
2019-04-06T08:43:22.771Z,3.30
2019-04-06T08:45:49.894Z,3.90
2019-04-06T08:48:16.956Z,3.20
2019-04-06T08:50:43.972Z,3.40
2019-04-06T08:53:11.150Z,3.83
2019-04-06T08:55:38.184Z,2.97
2019-04-06T08:58:05.195Z,3.70
2019-04-06T09:00:32.237Z,3.67
2019-04-06T09:02:59.350Z,2.97
2019-04-06T09:05:26.434Z,3.40
2019-04-06T09:07:53.507Z,2.93
2019-04-06T09:10:20.552Z,3.20
2019-04-06T09:12:47.581Z,3.00
2019-04-06T09:15:14.634Z,3.40
2019-04-06T09:17:41.688Z,3.17
2019-04-06T09:20:08.696Z,2.90
2019-04-06T09:22:35.712Z,3.23
2019-04-06T09:25:02.765Z,3.03
2019-04-06T09:27:29.762Z,2.90
2019-04-06T09:29:56.825Z,3.40
2019-04-06T09:32:23.837Z,3.33
2019-04-06T09:34:50.892Z,3.23
2019-04-06T09:37:17.918Z,3.13
2019-04-06T09:39:44.961Z,3.13
2019-04-06T09:42:11.977Z,3.20
2019-04-06T09:44:53.847Z,3.17
2019-04-06T09:47:42.931Z,3.33
2019-04-06T09:50:38.033Z,3.10
2019-04-06T09:53:24.484Z,3.13
2019-04-06T09:56:09.614Z,3.10
2019-04-06T09:59:08.393Z,3.40
2019-04-06T10:02:12.907Z,2.90
2019-04-06T10:04:56.344Z,3.17
2019-04-06T10:07:41.678Z,3.20
2019-04-06T10:10:33.963Z,2.90
2019-04-06T10:13:32.411Z,3.10
2019-04-06T10:16:05.976Z,3.20
2019-04-06T10:18:58.398Z,3.20
2019-04-06T10:21:57.192Z,3.43
2019-04-06T10:24:52.468Z,3.20
2019-04-06T10:27:53.821Z,3.10
2019-04-06T10:30:35.022Z,2.80
2019-04-06T10:33:24.223Z,2.80
2019-04-06T10:36:25.904Z,3.23
2019-04-06T10:39:02.739Z,3.30
2019-04-06T10:41:49.228Z,2.97
2019-04-06T10:44:44.351Z,2.87
2019-04-06T10:47:49.025Z,3.30
2019-04-06T10:50:32.373Z,2.80
2019-04-06T10:53:09.563Z,3.20
2019-04-06T10:55:45.488Z,3.70
2019-04-06T10:58:41.142Z,2.93
2019-04-06T11:01:26.377Z,2.83
2019-04-06T11:04:10.780Z,3.00
2019-04-06T11:06:45.909Z,2.90
2019-04-06T11:09:21.268Z,3.10
2019-04-06T11:11:58.942Z,2.90
2019-04-06T11:15:00.700Z,3.17
2019-04-06T11:17:45.901Z,3.17
2019-04-06T11:20:34.984Z,2.77
2019-04-06T11:23:20.339Z,3.03
2019-04-06T11:26:13.548Z,2.60
2019-04-06T11:29:00.054Z,3.00
2019-04-06T11:31:49.107Z,3.00
2019-04-06T11:34:32.289Z,2.90
2019-04-06T11:37:25.609Z,3.17
2019-04-06T11:40:24.254Z,3.07
2019-04-06T11:43:09.241Z,3.23
2019-04-06T11:46:01.540Z,2.80
2019-04-06T11:48:38.805Z,2.90
2019-04-06T11:51:43.375Z,3.60
2019-04-06T11:54:23.316Z,3.20
2019-04-06T11:57:28.258Z,3.47
2019-04-06T12:00:25.548Z,3.00
2019-04-06T12:03:01.026Z,2.60
2019-04-06T12:05:46.134Z,3.23
2019-04-06T12:08:29.629Z,2.93
2019-04-06T12:11:14.668Z,2.83
2019-04-06T12:13:56.761Z,2.90
2019-04-06T12:16:49.344Z,3.27
2019-04-06T12:19:45.390Z,3.30
2019-04-06T12:22:34.569Z,2.90
2019-04-06T12:25:18.370Z,2.93
2019-04-06T12:28:04.851Z,3.07
2019-04-06T12:30:54.864Z,2.70
2019-04-06T12:33:39.862Z,2.47
2019-04-06T12:36:26.329Z,2.97
2019-04-06T12:39:12.990Z,2.80
2019-04-06T12:41:59.498Z,2.70
2019-04-06T12:44:48.884Z,2.77
2019-04-06T12:47:38.332Z,2.80
2019-04-06T12:50:23.373Z,2.90
2019-04-06T12:53:08.469Z,3.40
2019-04-06T12:55:53.388Z,2.93
2019-04-06T12:58:38.482Z,3.60
2019-04-06T13:01:33.714Z,3.07
2019-04-06T13:04:23.747Z,3.10
2019-04-06T13:07:09.027Z,2.70
2019-04-06T13:09:53.883Z,3.10
2019-04-06T13:12:52.248Z,2.70
2019-04-06T13:15:31.818Z,2.87
2019-04-06T13:18:24.254Z,2.63
2019-04-06T13:21:03.606Z,2.80
2019-04-06T13:23:42.288Z,2.70
2019-04-06T13:26:27.814Z,2.60
2019-04-06T13:29:00.475Z,2.90
2019-04-06T13:31:49.833Z,3.10
2019-04-06T13:34:25.560Z,3.00
2019-04-06T13:37:12.200Z,2.87
2019-04-06T13:39:57.591Z,3.30
2019-04-06T13:42:39.167Z,2.70
2019-04-06T13:45:14.210Z,3.00
2019-04-06T13:48:00.639Z,2.80
2019-04-06T13:50:43.137Z,2.97
2019-04-06T13:53:28.301Z,2.90
2019-04-06T13:56:15.348Z,2.93
2019-04-06T13:58:51.155Z,2.77
2019-04-06T14:01:37.577Z,2.80
2019-04-06T14:04:24.813Z,2.80
2019-04-06T14:07:29.488Z,2.90
2019-04-06T14:10:19.016Z,2.83
2019-04-06T14:13:05.534Z,2.50
2019-04-06T14:15:51.996Z,3.30
2019-04-06T14:18:41.033Z,3.20
2019-04-06T14:21:39.620Z,3.20
2019-04-06T14:24:31.803Z,2.47
2019-04-06T14:27:27.312Z,2.60
2019-04-06T14:30:10.293Z,2.80
2019-04-06T14:33:14.924Z,3.23
2019-04-06T14:36:09.459Z,2.33
2019-04-06T14:39:04.786Z,2.33
2019-04-06T14:41:54.059Z,2.60
2019-04-06T14:44:34.059Z,3.10
2019-04-06T14:47:29.563Z,2.63
2019-04-06T14:50:14.418Z,3.17
2019-04-06T14:52:51.095Z,3.03
2019-04-06T14:55:30.696Z,2.57
2019-04-06T14:58:20.972Z,3.03
2019-04-06T15:01:05.135Z,2.60
2019-04-06T15:04:03.958Z,2.40
2019-04-06T15:06:53.405Z,2.80
2019-04-06T15:09:39.925Z,2.80
2019-04-06T15:12:29.203Z,2.80
2019-04-06T15:15:19.805Z,2.97
2019-04-06T15:18:09.259Z,2.40
2019-04-06T15:20:49.552Z,3.13
2019-04-06T15:23:32.085Z,2.70
2019-04-06T15:26:15.425Z,2.73
2019-04-06T15:28:50.786Z,2.43
2019-04-06T15:31:35.661Z,2.27
2019-04-06T15:34:13.972Z,2.80
2019-04-06T15:37:00.280Z,2.80
2019-04-06T15:39:40.106Z,2.80
2019-04-06T15:42:22.342Z,2.90
2019-04-06T15:45:11.161Z,2.93
2019-04-06T15:47:57.635Z,2.60
2019-04-06T15:50:40.208Z,2.50
2019-04-06T15:53:35.741Z,2.43
2019-04-06T15:56:22.205Z,3.07
2019-04-06T15:58:57.882Z,2.97
2019-04-06T16:01:33.933Z,2.63
2019-04-06T16:04:24.940Z,2.70
2019-04-06T16:07:29.515Z,2.53
2019-04-06T16:10:25.031Z,2.93
2019-04-06T16:13:07.871Z,2.43
2019-04-06T16:15:57.162Z,2.53
2019-04-06T16:18:38.270Z,2.63
2019-04-06T16:21:30.817Z,2.90
2019-04-06T16:24:09.488Z,2.97
2019-04-06T16:27:00.131Z,2.70
2019-04-06T16:29:43.056Z,2.67
2019-04-06T16:32:33.862Z,2.77
2019-04-06T16:35:22.044Z,2.80
2019-04-06T16:38:08.768Z,3.07
2019-04-06T16:40:50.466Z,2.50
2019-04-06T16:43:36.083Z,2.60
2019-04-06T16:46:32.219Z,2.73
2019-04-06T16:49:10.854Z,2.70
2019-04-06T16:51:56.024Z,2.33
2019-04-06T16:54:41.199Z,2.43
2019-04-06T16:57:26.512Z,3.00
2019-04-06T17:00:19.544Z,2.90
2019-04-06T17:03:18.596Z,2.10
2019-04-06T17:06:02.807Z,2.50
2019-04-06T17:09:07.575Z,2.70
2019-04-06T17:11:53.590Z,2.80
2019-04-06T17:14:50.084Z,3.20
2019-04-06T17:17:28.395Z,3.23
2019-04-06T17:20:17.423Z,2.57
2019-04-06T17:23:03.866Z,2.43
2019-04-06T17:25:39.605Z,2.70
2019-04-06T17:28:26.360Z,3.03
2019-04-06T17:31:18.554Z,2.70
2019-04-06T17:34:05.083Z,2.80
2019-04-06T17:36:50.158Z,2.93
2019-04-06T17:39:36.628Z,2.70
2019-04-06T17:42:13.089Z,2.40
2019-04-06T17:44:58.055Z,2.40
2019-04-06T17:47:43.040Z,2.73
2019-04-06T17:50:27.859Z,2.30
2019-04-06T17:53:08.112Z,2.60
2019-04-06T17:55:59.303Z,2.90
2019-04-06T17:58:38.310Z,2.60
2019-04-06T18:01:34.167Z,3.10
2019-04-06T18:04:19.611Z,2.47
2019-04-06T18:07:15.103Z,2.93
2019-04-06T18:12:40.523Z,2.70
2019-04-06T18:15:07.311Z,2.37
2019-04-06T18:17:34.163Z,2.87
2019-04-06T18:20:01.020Z,2.50
2019-04-06T18:22:27.837Z,2.80
2019-04-06T18:24:54.657Z,2.80
2019-04-06T18:27:21.592Z,3.00
2019-04-06T18:29:49.243Z,2.33
2019-04-06T18:32:33.963Z,2.83
2019-04-06T18:35:00.898Z,2.73
2019-04-06T18:37:41.113Z,2.50
2019-04-06T18:40:33.475Z,2.40
2019-04-06T18:43:00.810Z,2.40
2019-04-06T18:45:30.026Z,2.70
2019-04-06T18:47:57.249Z,2.80
2019-04-06T18:50:33.696Z,2.97
2019-04-06T18:52:53.119Z,2.73
2019-04-06T18:55:20.101Z,2.87
2019-04-06T18:57:46.967Z,2.40
2019-04-06T19:00:13.783Z,2.60
2019-04-06T19:02:40.599Z,2.43
2019-04-06T19:05:07.711Z,2.97
2019-04-06T19:07:34.924Z,2.33
2019-04-06T19:10:02.598Z,2.60
2019-04-06T19:12:29.461Z,2.70
2019-04-06T19:14:56.552Z,2.70
2019-04-06T19:17:23.585Z,3.07
2019-04-06T19:19:51.171Z,2.70
2019-04-06T19:22:18.316Z,2.63
2019-04-06T19:24:45.279Z,2.70
2019-04-06T19:27:12.514Z,2.90
2019-04-06T19:29:39.589Z,2.40
2019-04-06T19:32:06.410Z,2.80
2019-04-06T19:34:33.229Z,2.33
2019-04-06T19:37:00.225Z,2.70
2019-04-06T19:39:27.391Z,2.60
2019-04-06T19:41:54.358Z,2.83
2019-04-06T19:44:21.657Z,2.53
2019-04-06T19:46:48.898Z,2.87
2019-04-06T19:49:15.798Z,2.80
2019-04-06T19:51:43.009Z,2.73
2019-04-06T19:54:09.868Z,2.73
2019-04-06T19:56:36.735Z,2.60
2019-04-06T19:59:04.403Z,2.83
2019-04-06T20:01:31.976Z,3.10
2019-04-06T20:03:59.145Z,2.80
2019-04-06T20:06:26.194Z,3.03
2019-04-06T20:08:53.049Z,2.63
2019-04-06T20:11:20.775Z,2.83
2019-04-06T20:13:47.965Z,2.70
2019-04-06T20:16:15.293Z,3.43
2019-04-06T20:18:42.308Z,2.63
2019-04-06T20:21:09.744Z,2.70
2019-04-06T20:23:36.787Z,2.93
2019-04-06T20:26:03.668Z,2.43
2019-04-06T20:28:30.992Z,2.60
2019-04-06T20:30:57.828Z,2.60
2019-04-06T20:33:24.804Z,2.50
2019-04-06T20:35:52.084Z,3.00
2019-04-06T20:38:19.522Z,3.23
2019-04-06T20:40:46.444Z,2.50
2019-04-06T20:43:13.267Z,2.80
2019-04-06T20:45:40.131Z,2.37
2019-04-06T20:48:07.676Z,3.00
2019-04-06T20:50:34.625Z,3.13
2019-04-06T20:53:01.444Z,3.10
2019-04-06T20:55:28.295Z,2.90
2019-04-06T20:57:55.115Z,2.87
2019-04-06T21:00:22.101Z,2.80
2019-04-06T21:02:48.922Z,3.00
2019-04-06T21:05:16.222Z,2.57
2019-04-06T21:07:43.680Z,2.80
2019-04-06T21:10:10.981Z,2.63
2019-04-06T21:12:37.827Z,3.20
2019-04-06T21:15:16.054Z,2.67
2019-04-06T21:17:33.494Z,2.60
2019-04-06T21:20:00.345Z,2.80
2019-04-06T21:22:27.289Z,3.30
2019-04-06T21:24:54.783Z,2.70
2019-04-06T21:27:21.674Z,2.77
2019-04-06T21:29:48.494Z,3.10
2019-04-06T21:32:15.594Z,2.60
2019-04-06T21:34:42.698Z,3.13
2019-04-06T21:37:10.133Z,3.00
2019-04-06T21:39:37.117Z,3.30
2019-04-06T21:42:04.476Z,3.07
2019-04-06T21:44:31.354Z,3.10
2019-04-06T21:46:58.254Z,2.70
2019-04-06T21:49:25.065Z,2.93
2019-04-06T21:51:51.899Z,2.77
2019-04-06T21:54:19.226Z,2.73
2019-04-06T21:56:46.686Z,2.73
2019-04-06T21:59:15.807Z,2.63
2019-04-06T22:01:42.276Z,2.40
2019-04-06T22:04:10.906Z,2.97
2019-04-06T22:06:37.985Z,2.60
2019-04-06T22:09:08.473Z,3.07
2019-04-06T22:11:35.447Z,3.23
2019-04-06T22:14:02.366Z,3.00
2019-04-06T22:16:29.202Z,3.40
2019-04-06T22:18:56.441Z,2.57
2019-04-06T22:21:23.863Z,2.67
2019-04-06T22:23:50.806Z,2.80
2019-04-06T22:26:18.204Z,3.20
2019-04-06T22:28:45.806Z,2.40
2019-04-06T22:31:13.247Z,3.27
2019-04-06T22:33:40.182Z,2.50
2019-04-06T22:36:07.038Z,2.90
2019-04-06T22:38:33.870Z,2.90
2019-04-06T22:41:01.232Z,3.40
2019-04-06T22:43:28.301Z,2.60
2019-04-06T22:45:55.183Z,2.50
2019-04-06T22:48:22.029Z,2.70
2019-04-06T22:50:48.845Z,3.07
2019-04-06T22:53:15.706Z,2.70
2019-04-06T22:55:42.974Z,3.60
2019-04-06T22:58:09.930Z,3.03
2019-04-06T23:00:39.913Z,3.10
2019-04-06T23:03:26.453Z,3.10
2019-04-06T23:05:56.372Z,2.80
2019-04-06T23:08:23.509Z,3.00
2019-04-06T23:10:50.518Z,2.77
2019-04-06T23:13:17.708Z,3.20
2019-04-06T23:15:44.965Z,3.30
2019-04-06T23:18:11.828Z,3.50
2019-04-06T23:20:38.668Z,3.07
2019-04-06T23:23:05.489Z,2.90
2019-04-06T23:25:32.391Z,3.30
2019-04-06T23:27:59.184Z,3.03
2019-04-06T23:30:26.417Z,3.37
2019-04-06T23:32:53.542Z,3.37
2019-04-06T23:35:20.849Z,3.40
2019-04-06T23:37:48.273Z,2.57
2019-04-06T23:40:15.179Z,3.03
2019-04-06T23:42:42.028Z,3.43
2019-04-06T23:45:09.129Z,3.50
2019-04-06T23:47:36.081Z,3.47
2019-04-06T23:50:02.926Z,2.80
2019-04-06T23:52:29.778Z,2.93
2019-04-06T23:54:57.160Z,3.20
2019-04-06T23:57:24.044Z,3.90
2019-04-06T23:59:51.157Z,3.30
